createdAt,value
2019-04-29T00:02:25.300Z,4.80
2019-04-29T00:04:54.795Z,4.80
2019-04-29T00:07:24.394Z,4.80
2019-04-29T00:09:54.052Z,4.80
2019-04-29T00:12:23.617Z,4.80
2019-04-29T00:14:57.677Z,4.80
2019-04-29T00:17:28.985Z,4.60
2019-04-29T00:20:00.872Z,4.50
2019-04-29T00:22:30.621Z,4.40
2019-04-29T00:25:00.186Z,4.40
2019-04-29T00:27:29.669Z,4.30
2019-04-29T00:29:59.257Z,4.30
2019-04-29T00:32:28.821Z,4.30
2019-04-29T00:34:58.412Z,4.40
2019-04-29T00:37:32.462Z,4.40
2019-04-29T00:40:19.824Z,4.40
2019-04-29T00:42:50.954Z,4.40
2019-04-29T00:45:20.689Z,4.40
2019-04-29T00:47:50.185Z,4.40
2019-04-29T00:50:19.778Z,4.50
2019-04-29T00:52:49.382Z,4.50
2019-04-29T00:55:20.523Z,4.50
2019-04-29T00:57:50.149Z,4.60
2019-04-29T01:00:21.934Z,4.40
2019-04-29T01:02:51.421Z,4.30
2019-04-29T01:05:21.187Z,4.20
2019-04-29T01:07:50.914Z,4.10
2019-04-29T01:10:20.577Z,4.10
2019-04-29T01:12:50.062Z,4.10
2019-04-29T01:15:19.636Z,4.10
2019-04-29T01:17:49.274Z,4.10
2019-04-29T01:20:18.952Z,4.10
2019-04-29T01:22:48.576Z,4.20
2019-04-29T01:25:18.228Z,4.20
2019-04-29T01:28:05.345Z,4.20
2019-04-29T01:31:01.487Z,4.20
2019-04-29T01:33:30.980Z,4.10
2019-04-29T01:36:07.871Z,4.00
2019-04-29T01:38:37.507Z,4.00
2019-04-29T01:41:08.822Z,4.00
2019-04-29T01:43:56.207Z,4.00
2019-04-29T01:46:25.720Z,4.00
2019-04-29T01:48:55.271Z,4.00
2019-04-29T01:51:24.994Z,4.00
2019-04-29T01:53:54.572Z,4.00
2019-04-29T01:56:24.046Z,4.00
2019-04-29T01:58:53.617Z,4.00
2019-04-29T02:01:23.290Z,4.00
2019-04-29T02:03:52.791Z,4.00
2019-04-29T02:06:22.455Z,4.00
2019-04-29T02:08:53.887Z,4.00
2019-04-29T02:11:23.552Z,4.00
2019-04-29T02:13:53.241Z,3.90
2019-04-29T02:16:22.800Z,3.90
2019-04-29T02:18:52.356Z,3.80
2019-04-29T02:21:21.873Z,3.90
2019-04-29T02:24:11.065Z,3.90
2019-04-29T02:26:40.657Z,3.90
2019-04-29T02:29:10.221Z,3.90
2019-04-29T02:31:41.396Z,3.90
2019-04-29T02:34:11.038Z,3.80
2019-04-29T02:36:40.683Z,3.90
2019-04-29T02:39:23.745Z,3.90
2019-04-29T02:42:04.862Z,3.90
2019-04-29T02:44:34.470Z,4.00
2019-04-29T02:47:04.125Z,3.80
2019-04-29T02:49:33.684Z,3.90
2019-04-29T02:52:03.369Z,3.90
2019-04-29T02:54:32.880Z,3.90
2019-04-29T02:57:16.266Z,3.80
2019-04-29T03:00:00.607Z,3.90
2019-04-29T03:02:31.887Z,3.80
2019-04-29T03:05:03.853Z,3.70
2019-04-29T03:07:33.503Z,3.80
2019-04-29T03:10:03.036Z,3.90
2019-04-29T03:12:32.775Z,3.80
2019-04-29T03:15:02.321Z,3.80
2019-04-29T03:17:32.006Z,3.80
2019-04-29T03:20:19.221Z,3.70
2019-04-29T03:22:50.127Z,3.60
2019-04-29T03:25:19.831Z,3.50
2019-04-29T03:27:49.312Z,3.40
2019-04-29T03:30:18.956Z,3.40
2019-04-29T03:32:48.454Z,3.40
2019-04-29T03:35:18.024Z,3.50
2019-04-29T03:37:47.573Z,3.50
2019-04-29T03:40:17.220Z,3.50
2019-04-29T03:42:46.699Z,3.40
2019-04-29T03:45:16.351Z,3.50
2019-04-29T03:47:45.962Z,3.50
2019-04-29T03:50:15.637Z,3.50
2019-04-29T03:52:45.293Z,3.50
2019-04-29T03:55:15.006Z,3.40
2019-04-29T03:57:44.653Z,3.20
2019-04-29T04:00:16.225Z,3.20
2019-04-29T04:02:45.482Z,3.10
2019-04-29T04:05:26.623Z,3.30
2019-04-29T04:08:06.613Z,3.30
2019-04-29T04:10:36.224Z,3.30
2019-04-29T04:13:05.707Z,3.30
2019-04-29T04:15:35.218Z,3.30
2019-04-29T04:18:10.389Z,3.30
2019-04-29T04:20:40.073Z,3.30
2019-04-29T04:23:09.816Z,3.20
2019-04-29T04:25:39.494Z,3.10
2019-04-29T04:28:09.028Z,3.10
2019-04-29T04:30:38.559Z,3.20
2019-04-29T04:33:08.041Z,3.20
2019-04-29T04:35:37.546Z,3.30
2019-04-29T04:38:07.107Z,3.30
2019-04-29T04:40:41.311Z,3.40
2019-04-29T04:43:10.809Z,3.40
2019-04-29T04:45:40.374Z,3.50
2019-04-29T04:48:09.878Z,3.50
2019-04-29T04:50:39.525Z,3.50
2019-04-29T04:53:09.149Z,3.60
2019-04-29T04:55:40.321Z,3.70
2019-04-29T04:58:09.793Z,3.80
2019-04-29T05:00:39.454Z,3.90
2019-04-29T05:03:09.018Z,4.00
2019-04-29T05:05:38.539Z,4.10
2019-04-29T05:08:08.043Z,4.20
2019-04-29T05:10:37.569Z,4.40
2019-04-29T05:13:07.084Z,4.50
2019-04-29T05:15:36.589Z,4.60
2019-04-29T05:18:06.149Z,4.70
2019-04-29T05:20:35.655Z,4.80
2019-04-29T05:23:05.288Z,4.90
2019-04-29T05:25:35.811Z,5.00
2019-04-29T05:28:05.865Z,5.10
2019-04-29T05:30:35.520Z,5.20
2019-04-29T05:33:05.338Z,5.40
2019-04-29T05:35:42.192Z,5.40
2019-04-29T05:38:23.301Z,5.50
2019-04-29T05:40:56.577Z,5.60
2019-04-29T05:43:27.131Z,5.70
2019-04-29T05:46:21.025Z,5.80
2019-04-29T05:48:48.703Z,5.90
2019-04-29T05:51:28.436Z,6.00
2019-04-29T05:53:59.908Z,6.20
2019-04-29T05:56:29.392Z,6.50
2019-04-29T05:58:58.895Z,6.60
2019-04-29T06:01:30.119Z,6.90
2019-04-29T06:03:59.855Z,7.30
2019-04-29T06:06:29.402Z,7.50
2019-04-29T06:08:58.909Z,7.80
2019-04-29T06:11:28.704Z,7.90
2019-04-29T06:13:58.202Z,7.90
2019-04-29T06:16:27.695Z,8.00
2019-04-29T06:19:00.302Z,8.00
2019-04-29T06:21:28.429Z,8.20
2019-04-29T06:23:59.493Z,8.20
2019-04-29T06:26:29.411Z,8.30
2019-04-29T06:28:59.068Z,8.50
2019-04-29T06:31:28.804Z,8.70
2019-04-29T06:34:00.712Z,8.90
2019-04-29T06:36:29.755Z,9.10
2019-04-29T06:38:59.347Z,9.30
2019-04-29T06:41:28.836Z,9.50
2019-04-29T06:44:00.753Z,10.00
2019-04-29T06:46:29.803Z,10.80
2019-04-29T06:49:09.915Z,11.60
2019-04-29T06:51:30.813Z,12.80
2019-04-29T06:54:00.558Z,14.20
2019-04-29T06:56:30.281Z,15.00
2019-04-29T06:58:59.806Z,15.50
2019-04-29T07:01:33.106Z,15.80
2019-04-29T07:04:01.478Z,15.30
2019-04-29T07:06:31.517Z,15.60
2019-04-29T07:09:01.289Z,16.50
2019-04-29T07:11:31.919Z,17.10
2019-04-29T07:14:02.262Z,17.40
2019-04-29T07:16:32.211Z,18.00
2019-04-29T07:19:01.992Z,19.00
2019-04-29T07:21:31.507Z,20.00
2019-04-29T07:24:00.999Z,20.60
2019-04-29T07:26:30.622Z,20.90
2019-04-29T07:29:00.121Z,20.60
2019-04-29T07:31:33.243Z,20.80
2019-04-29T07:34:00.888Z,21.40
2019-04-29T07:36:30.383Z,22.90
2019-04-29T07:39:00.104Z,23.70
2019-04-29T07:41:29.794Z,23.90
2019-04-29T07:43:59.469Z,24.80
2019-04-29T07:46:36.361Z,24.90
2019-04-29T07:49:05.787Z,25.30
2019-04-29T07:51:39.404Z,25.50
2019-04-29T07:54:11.133Z,24.70
2019-04-29T07:56:42.353Z,23.90
2019-04-29T07:59:11.250Z,24.80
2019-04-29T08:01:41.144Z,24.10
2019-04-29T08:04:10.820Z,24.30
2019-04-29T08:06:43.112Z,24.40
2019-04-29T08:09:12.648Z,24.20
2019-04-29T08:11:42.353Z,24.20
2019-04-29T08:14:13.382Z,24.40
2019-04-29T08:16:42.916Z,25.20
2019-04-29T08:19:12.484Z,26.00
2019-04-29T08:21:45.510Z,26.50
2019-04-29T08:24:15.811Z,26.60
2019-04-29T08:26:47.650Z,26.80
2019-04-29T08:29:16.151Z,27.00
2019-04-29T08:31:45.679Z,25.50
2019-04-29T08:34:18.666Z,25.20
2019-04-29T08:36:46.584Z,25.50
2019-04-29T08:39:16.139Z,25.60
2019-04-29T08:41:45.874Z,26.20
2019-04-29T08:44:33.069Z,27.20
2019-04-29T08:47:23.655Z,27.60
2019-04-29T08:49:50.559Z,26.20
2019-04-29T08:52:20.339Z,25.00
2019-04-29T08:54:50.716Z,24.20
2019-04-29T08:57:21.085Z,23.80
2019-04-29T08:59:50.589Z,24.20
2019-04-29T09:02:33.527Z,25.00
2019-04-29T09:04:53.793Z,24.70
2019-04-29T09:07:23.260Z,25.10
2019-04-29T09:09:56.151Z,25.70
2019-04-29T09:12:29.036Z,25.70
2019-04-29T09:14:55.532Z,25.00
2019-04-29T09:17:25.075Z,24.10
2019-04-29T09:19:55.254Z,24.00
2019-04-29T09:22:26.414Z,24.60
2019-04-29T09:25:12.373Z,24.90
2019-04-29T09:27:46.219Z,24.70
2019-04-29T09:30:17.533Z,24.10
2019-04-29T09:32:47.062Z,22.40
2019-04-29T09:35:17.109Z,21.00
2019-04-29T09:37:46.914Z,21.20
2019-04-29T09:40:18.623Z,21.80
2019-04-29T09:42:50.327Z,21.50
2019-04-29T09:45:29.914Z,21.70
2019-04-29T09:47:59.392Z,20.90
2019-04-29T09:50:28.921Z,20.20
2019-04-29T09:52:58.418Z,19.90
2019-04-29T09:55:27.920Z,19.20
2019-04-29T09:57:57.440Z,18.20
2019-04-29T10:00:41.901Z,17.90
2019-04-29T10:03:14.081Z,17.50
2019-04-29T10:05:45.248Z,19.10
2019-04-29T10:08:14.893Z,20.50
2019-04-29T10:10:45.540Z,21.10
2019-04-29T10:13:15.521Z,21.10
2019-04-29T10:15:44.943Z,22.20
2019-04-29T10:18:17.588Z,22.10
2019-04-29T10:20:57.729Z,20.40
2019-04-29T10:23:27.310Z,18.20
2019-04-29T10:25:57.000Z,17.00
2019-04-29T10:28:26.559Z,16.30
2019-04-29T10:30:56.223Z,16.00
2019-04-29T10:33:26.243Z,16.00
2019-04-29T10:35:55.769Z,17.30
2019-04-29T10:38:25.405Z,18.70
2019-04-29T10:41:03.502Z,19.00
2019-04-29T10:43:53.746Z,19.00
2019-04-29T10:46:22.095Z,18.00
2019-04-29T10:49:06.041Z,17.70
2019-04-29T10:51:35.767Z,18.10
2019-04-29T10:54:05.942Z,18.90
2019-04-29T10:56:39.442Z,19.60
2019-04-29T10:59:09.141Z,20.00
2019-04-29T11:02:18.823Z,19.50
2019-04-29T11:04:50.253Z,19.40
2019-04-29T11:07:26.556Z,19.30
2019-04-29T11:09:58.242Z,19.10
2019-04-29T11:12:27.838Z,18.80
2019-04-29T11:14:57.490Z,18.80
2019-04-29T11:17:28.238Z,18.70
2019-04-29T11:19:57.796Z,18.20
2019-04-29T11:22:29.017Z,17.90
2019-04-29T11:25:00.230Z,18.10
2019-04-29T11:27:40.073Z,18.20
2019-04-29T11:30:11.598Z,18.20
2019-04-29T11:32:42.833Z,18.40
2019-04-29T11:35:17.000Z,18.50
2019-04-29T11:37:49.972Z,18.70
2019-04-29T11:40:26.016Z,18.70
2019-04-29T11:42:52.809Z,18.80
2019-04-29T11:45:22.524Z,18.40
2019-04-29T11:47:52.280Z,18.70
2019-04-29T11:50:39.946Z,18.30
2019-04-29T11:53:11.089Z,18.10
2019-04-29T11:55:43.411Z,18.20
2019-04-29T11:58:23.463Z,18.40
2019-04-29T12:01:04.011Z,18.20
2019-04-29T12:03:40.249Z,18.10
2019-04-29T12:06:19.033Z,17.90
2019-04-29T12:08:48.234Z,18.20
2019-04-29T12:11:17.123Z,18.30
2019-04-29T12:13:58.917Z,18.60
2019-04-29T12:16:35.411Z,18.50
2019-04-29T12:19:12.610Z,18.70
2019-04-29T12:21:43.927Z,18.90
2019-04-29T12:24:13.520Z,18.70
2019-04-29T12:26:44.441Z,18.80
2019-04-29T12:29:18.246Z,18.50
2019-04-29T12:31:51.194Z,17.90
2019-04-29T12:34:27.125Z,17.90
2019-04-29T12:36:57.019Z,18.00
2019-04-29T12:39:43.282Z,18.20
2019-04-29T12:42:28.148Z,18.20
2019-04-29T12:44:59.310Z,18.10
2019-04-29T12:47:30.517Z,17.90
2019-04-29T12:50:00.238Z,17.60
2019-04-29T12:52:30.125Z,17.30
2019-04-29T12:55:08.511Z,17.30
2019-04-29T12:57:31.017Z,17.30
2019-04-29T13:00:00.783Z,17.20
2019-04-29T13:02:33.151Z,16.90
2019-04-29T13:05:10.632Z,16.90
2019-04-29T13:07:43.106Z,17.00
2019-04-29T13:10:27.349Z,17.30
2019-04-29T13:12:58.232Z,17.40
2019-04-29T13:15:35.676Z,17.40
2019-04-29T13:18:12.966Z,17.10
2019-04-29T13:20:41.593Z,17.00
2019-04-29T13:23:17.281Z,16.90
2019-04-29T13:25:41.409Z,17.20
2019-04-29T13:28:10.974Z,17.50
2019-04-29T13:30:43.332Z,17.50
2019-04-29T13:33:16.690Z,17.10
2019-04-29T13:35:48.439Z,17.00
2019-04-29T13:38:14.472Z,17.20
2019-04-29T13:40:44.226Z,17.40
2019-04-29T13:43:13.973Z,17.70
2019-04-29T13:45:45.723Z,17.70
2019-04-29T13:48:24.545Z,17.50
2019-04-29T13:51:04.866Z,17.50
2019-04-29T13:53:34.741Z,17.70
2019-04-29T13:56:11.632Z,17.70
2019-04-29T13:58:35.908Z,17.20
2019-04-29T14:01:21.386Z,17.00
2019-04-29T14:03:47.189Z,17.20
2019-04-29T14:06:18.788Z,17.20
2019-04-29T14:08:49.472Z,17.20
2019-04-29T14:11:22.003Z,17.00
2019-04-29T14:13:50.512Z,16.90
2019-04-29T14:16:20.185Z,16.70
2019-04-29T14:18:50.268Z,16.60
2019-04-29T14:21:25.737Z,16.40
2019-04-29T14:23:54.144Z,16.50
2019-04-29T14:26:23.703Z,16.50
2019-04-29T14:28:54.350Z,16.50
2019-04-29T14:31:24.525Z,16.70
2019-04-29T14:34:01.700Z,16.90
2019-04-29T14:36:31.225Z,16.60
2019-04-29T14:39:00.813Z,16.40
2019-04-29T14:41:32.000Z,16.30
2019-04-29T14:44:03.558Z,16.00
2019-04-29T14:46:38.312Z,16.10
2019-04-29T14:49:07.634Z,16.30
2019-04-29T14:51:38.034Z,16.50
2019-04-29T14:54:07.817Z,16.60
2019-04-29T14:56:37.415Z,16.10
2019-04-29T14:59:07.709Z,15.80
2019-04-29T15:01:39.184Z,15.70
2019-04-29T15:04:18.596Z,15.70
2019-04-29T15:06:41.855Z,15.60
2019-04-29T15:09:17.038Z,15.50
2019-04-29T15:11:51.602Z,15.40
2019-04-29T15:14:35.085Z,15.30
2019-04-29T15:17:09.663Z,15.10
2019-04-29T15:19:55.765Z,15.10
2019-04-29T15:22:29.738Z,15.10
2019-04-29T15:24:59.359Z,14.90
2019-04-29T15:27:28.870Z,14.80
2019-04-29T15:29:58.456Z,14.60
2019-04-29T15:32:28.682Z,14.30
2019-04-29T15:34:58.456Z,14.30
2019-04-29T15:37:28.038Z,14.20
2019-04-29T15:39:58.414Z,14.10
2019-04-29T15:42:28.459Z,13.90
2019-04-29T15:44:58.071Z,14.00
2019-04-29T15:47:31.133Z,14.00
2019-04-29T15:50:00.658Z,13.80
2019-04-29T15:52:30.216Z,13.70
2019-04-29T15:54:59.737Z,13.60
2019-04-29T15:57:29.249Z,13.50
2019-04-29T16:00:01.285Z,13.60
2019-04-29T16:02:30.430Z,13.50
2019-04-29T16:05:04.626Z,13.50
2019-04-29T16:07:32.887Z,13.50
2019-04-29T16:10:20.484Z,13.40
2019-04-29T16:13:04.013Z,13.50
2019-04-29T16:15:33.751Z,13.50
2019-04-29T16:18:05.464Z,13.40
2019-04-29T16:20:34.591Z,13.40
2019-04-29T16:23:04.125Z,13.40
2019-04-29T16:25:39.888Z,13.30
2019-04-29T16:28:05.348Z,13.30
2019-04-29T16:30:35.017Z,13.30
2019-04-29T16:33:12.962Z,13.20
2019-04-29T16:35:36.079Z,13.20
2019-04-29T16:38:11.190Z,13.20
2019-04-29T16:43:14.651Z,13.10
2019-04-29T16:45:55.639Z,13.00
2019-04-29T16:48:25.259Z,12.90
2019-04-29T16:50:54.793Z,12.90
2019-04-29T16:53:24.387Z,12.90
2019-04-29T16:55:53.894Z,12.80
2019-04-29T16:58:23.478Z,12.70
2019-04-29T17:00:54.858Z,12.70
2019-04-29T17:03:24.584Z,12.80
2019-04-29T17:05:54.231Z,12.80
2019-04-29T17:08:25.659Z,12.90
2019-04-29T17:10:57.134Z,13.00
2019-04-29T17:13:26.883Z,13.00
2019-04-29T17:15:56.491Z,12.90
2019-04-29T17:18:26.005Z,12.90
2019-04-29T17:21:04.595Z,12.80
2019-04-29T17:23:27.362Z,12.80
2019-04-29T17:25:57.243Z,12.80
2019-04-29T17:28:29.226Z,12.70
2019-04-29T17:31:00.944Z,12.70
2019-04-29T17:33:44.579Z,12.60
2019-04-29T17:35:15.894Z,13.20
2019-04-29T17:36:10.004Z,12.50
2019-04-29T17:38:39.602Z,12.50
2019-04-29T17:41:09.401Z,12.50
2019-04-29T17:43:44.656Z,12.40
2019-04-29T17:46:22.700Z,12.50
2019-04-29T17:48:54.070Z,12.40
2019-04-29T17:51:24.782Z,12.40
2019-04-29T17:53:59.102Z,12.40
2019-04-29T17:56:31.445Z,12.40
2019-04-29T17:59:02.709Z,12.40
2019-04-29T18:01:49.941Z,12.40
2019-04-29T18:04:37.245Z,12.30
2019-04-29T18:07:26.841Z,12.30
2019-04-29T18:10:00.890Z,12.20
2019-04-29T18:12:37.557Z,12.20
2019-04-29T18:15:01.901Z,12.10
2019-04-29T18:17:33.235Z,12.10
2019-04-29T18:20:30.709Z,12.10
2019-04-29T18:22:56.267Z,12.20
2019-04-29T18:25:31.401Z,12.10
2019-04-29T18:28:01.247Z,12.00
2019-04-29T18:30:36.021Z,12.00
2019-04-29T18:33:02.330Z,11.90
2019-04-29T18:35:31.865Z,11.90
2019-04-29T18:38:01.422Z,11.90
2019-04-29T18:40:35.379Z,11.80
2019-04-29T18:43:02.402Z,11.80
2019-04-29T18:45:34.419Z,11.70
2019-04-29T18:48:03.345Z,11.60
2019-04-29T18:50:34.280Z,11.50
2019-04-29T18:53:06.805Z,11.40
2019-04-29T18:55:36.271Z,11.40
2019-04-29T18:58:06.028Z,11.30
2019-04-29T19:00:35.862Z,11.20
2019-04-29T19:03:06.584Z,11.10
2019-04-29T19:05:45.376Z,11.20
2019-04-29T19:08:23.064Z,11.20
2019-04-29T19:10:51.024Z,11.20
2019-04-29T19:13:17.968Z,11.20
2019-04-29T19:15:48.685Z,11.20
2019-04-29T19:18:21.059Z,11.20
2019-04-29T19:20:52.741Z,11.20
2019-04-29T19:23:22.301Z,11.20
2019-04-29T19:25:52.254Z,11.20
2019-04-29T19:28:29.496Z,11.10
2019-04-29T19:30:56.164Z,11.20
2019-04-29T19:33:25.298Z,11.20
2019-04-29T19:35:55.458Z,11.10
2019-04-29T19:38:25.602Z,11.20
2019-04-29T19:40:55.246Z,11.10
2019-04-29T19:43:25.854Z,11.00
2019-04-29T19:45:57.463Z,10.90
2019-04-29T19:48:28.663Z,10.90
2019-04-29T19:51:13.932Z,10.90
2019-04-29T19:53:29.858Z,10.90
2019-04-29T19:56:03.845Z,10.90
2019-04-29T19:58:32.058Z,10.90
2019-04-29T20:01:11.587Z,10.90
2019-04-29T20:03:37.823Z,10.90
2019-04-29T20:06:21.449Z,10.90
2019-04-29T20:08:53.977Z,10.90
2019-04-29T20:11:15.926Z,11.00
2019-04-29T20:14:01.026Z,10.90
2019-04-29T20:16:40.247Z,10.90
2019-04-29T20:19:15.158Z,10.90
2019-04-29T20:21:37.680Z,11.00
2019-04-29T20:24:09.363Z,11.00
2019-04-29T20:26:39.067Z,11.00
2019-04-29T20:29:08.998Z,10.90
2019-04-29T20:31:39.288Z,10.90
2019-04-29T20:34:10.220Z,10.90
2019-04-29T20:36:42.866Z,10.80
2019-04-29T20:39:16.984Z,10.90
2019-04-29T20:41:46.598Z,10.90
2019-04-29T20:44:16.292Z,10.90
2019-04-29T20:47:12.957Z,10.90
2019-04-29T20:49:17.099Z,10.90
2019-04-29T20:51:51.923Z,10.90
2019-04-29T20:54:21.559Z,10.90
2019-04-29T20:57:02.091Z,10.90
2019-04-29T20:59:22.922Z,10.80
2019-04-29T21:01:56.816Z,10.80
2019-04-29T21:04:31.965Z,10.90
2019-04-29T21:07:00.532Z,11.00
2019-04-29T21:09:30.130Z,11.00
2019-04-29T21:12:20.440Z,11.10
2019-04-29T21:14:50.462Z,11.10
2019-04-29T21:17:28.633Z,11.00
2019-04-29T21:19:51.327Z,10.90
2019-04-29T21:22:23.669Z,10.90
2019-04-29T21:24:53.931Z,10.90
2019-04-29T21:27:25.967Z,10.80
2019-04-29T21:29:55.616Z,10.80
2019-04-29T21:32:25.854Z,10.90
2019-04-29T21:35:16.922Z,10.80
2019-04-29T21:37:59.237Z,10.90
2019-04-29T21:40:42.149Z,10.70
2019-04-29T21:43:19.203Z,10.70
2019-04-29T21:45:48.779Z,10.60
2019-04-29T21:48:18.291Z,10.50
2019-04-29T21:50:47.806Z,10.60
2019-04-29T21:53:17.342Z,10.60
2019-04-29T21:55:47.005Z,10.60
2019-04-29T21:58:16.762Z,10.50
2019-04-29T22:00:46.751Z,10.60
2019-04-29T22:03:19.824Z,10.70
2019-04-29T22:05:49.322Z,10.60
2019-04-29T22:08:20.706Z,10.70
2019-04-29T22:10:51.434Z,10.70
2019-04-29T22:13:21.659Z,10.70
2019-04-29T22:15:51.265Z,10.80
2019-04-29T22:18:20.851Z,10.80
2019-04-29T22:20:50.352Z,10.80
2019-04-29T22:23:20.184Z,10.80
2019-04-29T22:25:49.830Z,10.80
2019-04-29T22:28:20.097Z,10.80
2019-04-29T22:30:54.730Z,10.90
2019-04-29T22:33:21.358Z,10.80
2019-04-29T22:35:50.887Z,10.70
2019-04-29T22:38:20.621Z,10.70
2019-04-29T22:40:51.833Z,10.80
2019-04-29T22:43:23.042Z,10.80
2019-04-29T22:45:52.610Z,10.90
2019-04-29T22:48:22.203Z,10.80
2019-04-29T22:50:53.308Z,10.70
2019-04-29T22:53:24.795Z,10.70
2019-04-29T22:55:56.641Z,10.70
2019-04-29T22:58:26.258Z,10.70
2019-04-29T23:00:56.018Z,10.60
2019-04-29T23:03:28.600Z,10.70
2019-04-29T23:06:00.144Z,10.60
2019-04-29T23:08:29.753Z,10.60
2019-04-29T23:11:04.242Z,10.60
2019-04-29T23:13:32.433Z,10.60
2019-04-29T23:16:02.287Z,10.60
2019-04-29T23:18:41.025Z,10.60
2019-04-29T23:21:16.305Z,10.80
2019-04-29T23:23:49.335Z,10.80
2019-04-29T23:26:18.809Z,10.80
2019-04-29T23:28:48.384Z,10.70
2019-04-29T23:31:17.999Z,10.60
2019-04-29T23:33:47.492Z,10.60
2019-04-29T23:36:16.965Z,10.60
2019-04-29T23:38:46.505Z,10.60
2019-04-29T23:41:15.978Z,10.60
2019-04-29T23:43:45.698Z,10.60
2019-04-29T23:46:16.113Z,10.60
2019-04-29T23:48:46.803Z,10.60
2019-04-29T23:51:18.862Z,10.50
2019-04-29T23:53:47.600Z,10.50
2019-04-29T23:56:18.794Z,10.40
2019-04-29T23:58:52.881Z,10.40
